createdAt,value
2023-03-26T00:02:18.384Z,97179.28
2023-03-26T00:04:47.402Z,97173.03
2023-03-26T00:07:30.455Z,97178.53
2023-03-26T00:10:00.626Z,97182.56
2023-03-26T00:12:29.621Z,97186.59
2023-03-26T00:14:57.484Z,97187.03
2023-03-26T00:17:24.953Z,97187.44
2023-03-26T00:20:01.391Z,97185.00
2023-03-26T00:22:41.697Z,97196.88
2023-03-26T00:25:17.331Z,97187.25
2023-03-26T00:27:45.699Z,97195.38
2023-03-26T00:30:13.233Z,97202.47
2023-03-26T00:32:40.835Z,97192.50
2023-03-26T00:35:08.184Z,97194.66
2023-03-26T00:37:35.781Z,97197.31
2023-03-26T00:40:07.085Z,97195.19
2023-03-26T00:42:34.962Z,97198.84
2023-03-26T00:45:02.216Z,97206.25
2023-03-26T00:47:29.458Z,97206.81
2023-03-26T00:49:57.626Z,97199.56
2023-03-26T00:52:28.980Z,97196.59
2023-03-26T00:54:56.368Z,97204.88
2023-03-26T00:57:32.959Z,97196.56
2023-03-26T07:56:08.132Z,97083.47
2023-03-26T07:59:06.962Z,97081.22
2023-03-26T08:02:23.814Z,97076.28
2023-03-26T08:05:35.040Z,97077.66
2023-03-26T08:08:45.918Z,97075.97
2023-03-26T08:11:54.646Z,97073.13
2023-03-26T08:14:42.037Z,97079.59
2023-03-26T08:17:16.398Z,97077.47
2023-03-26T08:19:54.782Z,97073.16
2023-03-26T08:22:36.757Z,97074.84
2023-03-26T08:26:07.901Z,97067.31
2023-03-26T08:29:23.407Z,97061.72
2023-03-26T08:31:51.562Z,97067.56
2023-03-26T08:34:19.022Z,97063.81
2023-03-26T08:36:46.568Z,97060.00
2023-03-26T08:39:14.630Z,97051.19
2023-03-26T08:41:59.998Z,97049.28
2023-03-26T08:45:06.183Z,97053.75
2023-03-26T08:47:36.357Z,97045.22
2023-03-26T08:50:17.572Z,97048.31
2023-03-26T08:53:34.390Z,97030.31
2023-03-26T08:56:32.215Z,97027.31
2023-03-26T08:59:42.477Z,97015.38
2023-03-26T09:02:31.086Z,97013.69
2023-03-26T09:05:40.614Z,96994.47
2023-03-26T09:08:14.629Z,96989.56
2023-03-26T09:11:04.748Z,96984.53
2023-03-26T09:13:56.803Z,96990.28
2023-03-26T09:16:27.065Z,96975.09
2023-03-26T09:19:15.594Z,96970.13
2023-03-26T09:22:32.797Z,96973.06
2023-03-26T09:25:20.624Z,96966.38
2023-03-26T09:28:20.712Z,96976.44
2023-03-26T09:31:10.333Z,96980.44
2023-03-26T09:33:52.452Z,96974.53
2023-03-26T09:36:26.120Z,96981.97
2023-03-26T09:38:57.697Z,96978.53
2023-03-26T09:41:35.569Z,96977.00
2023-03-26T09:44:23.951Z,96978.28
2023-03-26T09:46:54.941Z,96964.34
2023-03-26T09:49:33.460Z,96976.59
2023-03-26T09:52:22.907Z,96952.66
2023-03-26T09:55:22.681Z,96955.75
2023-03-26T09:58:19.559Z,96952.88
2023-03-26T10:01:05.769Z,96954.75
2023-03-26T10:04:05.751Z,96951.31
2023-03-26T10:06:53.885Z,96944.72
2023-03-26T10:09:38.713Z,96929.34
2023-03-26T10:12:46.164Z,96927.91
2023-03-26T10:15:38.605Z,96915.88
2023-03-26T10:18:36.954Z,96918.78
2023-03-26T10:21:30.952Z,96908.69
2023-03-26T10:24:33.097Z,96900.59
2023-03-26T10:27:24.618Z,96903.06
2023-03-26T10:30:12.787Z,96897.16
2023-03-26T10:33:28.934Z,96892.56
2023-03-26T10:36:02.683Z,96886.16
2023-03-26T10:39:03.282Z,96886.00
2023-03-26T10:41:54.802Z,96883.78
2023-03-26T10:45:07.415Z,96877.03
2023-03-26T10:48:13.998Z,96872.06
2023-03-26T10:50:48.407Z,96877.03
2023-03-26T10:53:36.887Z,96861.22
2023-03-26T10:56:26.228Z,96868.09
2023-03-26T10:58:57.352Z,96871.47
2023-03-26T11:02:03.466Z,96869.88
2023-03-26T11:04:48.891Z,96862.31
2023-03-26T11:07:40.633Z,96859.66
2023-03-26T11:10:27.251Z,96859.66
2023-03-26T11:13:16.803Z,96854.00
2023-03-26T11:16:03.992Z,96852.19
2023-03-26T11:19:17.051Z,96846.00
2023-03-26T11:21:47.107Z,96853.88
2023-03-26T11:24:53.174Z,96844.44
2023-03-26T11:27:29.390Z,96842.63
2023-03-26T11:30:06.181Z,96839.44
2023-03-26T11:32:46.554Z,96835.69
2023-03-26T11:35:41.097Z,96838.53
2023-03-26T11:38:19.743Z,96836.47
2023-03-26T11:40:51.144Z,96840.72
2023-03-26T11:43:37.986Z,96841.84
2023-03-26T11:46:12.101Z,96838.63
2023-03-26T11:48:47.032Z,96830.81
2023-03-26T11:51:25.072Z,96818.66
2023-03-26T11:53:52.636Z,96822.28
2023-03-26T11:56:32.120Z,96821.88
2023-03-26T11:59:11.583Z,96825.47
2023-03-26T12:01:56.640Z,96824.50
2023-03-26T12:04:35.262Z,96821.66
2023-03-26T12:07:18.609Z,96820.84
2023-03-26T12:10:15.456Z,96807.78
2023-03-26T12:12:47.931Z,96815.66
2023-03-26T12:16:04.295Z,96811.81
2023-03-26T12:19:03.758Z,96815.72
2023-03-26T12:21:49.100Z,96811.47
2023-03-26T12:24:34.138Z,96810.22
2023-03-26T12:27:14.221Z,96810.31
2023-03-26T12:29:43.294Z,96814.47
2023-03-26T12:32:14.544Z,96808.41
2023-03-26T12:34:48.579Z,96810.69
2023-03-26T12:37:38.699Z,96807.13
2023-03-26T12:40:26.099Z,96804.56
2023-03-26T12:44:48.416Z,96807.25
2023-03-26T12:47:55.672Z,96805.28
2023-03-26T12:48:39.965Z,96807.22
2023-03-26T12:51:45.143Z,96821.66
2023-03-26T12:54:17.007Z,96828.91
2023-03-26T12:57:11.272Z,96827.97
2023-03-26T13:00:07.665Z,96836.81
2023-03-26T13:02:49.416Z,96820.97
2023-03-26T13:05:54.882Z,96813.69
2023-03-26T13:08:47.976Z,96813.94
2023-03-26T13:11:35.275Z,96807.00
2023-03-26T13:14:21.484Z,96815.09
2023-03-26T13:17:10.559Z,96808.63
2023-03-26T13:20:00.108Z,96797.69
2023-03-26T13:22:45.151Z,96795.06
2023-03-26T13:25:44.754Z,96796.13
2023-03-26T13:28:40.157Z,96797.69
2023-03-26T13:31:34.590Z,96790.41
2023-03-26T13:34:18.123Z,96795.25
2023-03-26T13:37:04.438Z,96790.88
2023-03-26T13:39:56.070Z,96789.53
2023-03-26T13:42:36.660Z,96791.72
2023-03-26T13:45:37.718Z,96792.34
2023-03-26T13:48:14.354Z,96793.78
2023-03-26T13:50:44.076Z,96787.81
2023-03-26T13:53:23.207Z,96783.50
2023-03-26T13:56:00.010Z,96782.19
2023-03-26T13:58:51.990Z,96781.75
2023-03-26T14:01:41.836Z,96780.28
2023-03-26T14:04:21.583Z,96781.13
2023-03-26T14:06:58.965Z,96780.81
2023-03-26T14:10:01.529Z,96779.97
2023-03-26T14:12:49.495Z,96786.09
2023-03-26T14:15:31.730Z,96782.69
2023-03-26T14:18:19.787Z,96774.69
2023-03-26T14:21:02.928Z,96772.91
2023-03-26T14:23:58.194Z,96775.16
2023-03-26T14:26:45.040Z,96769.03
2023-03-26T14:29:56.697Z,96766.66
2023-03-26T14:33:03.814Z,96762.28
2023-03-26T14:36:19.162Z,96754.94
2023-03-26T14:39:08.947Z,96757.53
2023-03-26T14:41:48.256Z,96753.44
2023-03-26T14:44:47.685Z,96751.66
2023-03-26T14:47:21.554Z,96750.34
2023-03-26T14:50:27.602Z,96751.03
2023-03-26T14:53:01.244Z,96746.47
2023-03-26T14:56:08.444Z,96744.22
2023-03-26T14:59:20.162Z,96741.69
2023-03-26T15:02:18.483Z,96737.88
2023-03-26T15:04:54.582Z,96742.75
2023-03-26T15:08:04.128Z,96738.69
2023-03-26T15:11:05.676Z,96738.44
2023-03-26T15:13:45.333Z,96730.59
2023-03-26T15:16:37.101Z,96732.25
2023-03-26T15:19:12.780Z,96724.56
2023-03-26T15:22:06.853Z,96722.47
2023-03-26T15:24:52.895Z,96723.47
2023-03-26T15:27:45.492Z,96715.44
2023-03-26T15:30:50.850Z,96719.91
2023-03-26T15:33:58.679Z,96714.47
2023-03-26T15:37:02.640Z,96707.56
2023-03-26T15:40:08.926Z,96714.06
2023-03-26T15:42:47.985Z,96714.13
2023-03-26T15:45:33.660Z,96699.66
2023-03-26T15:48:32.424Z,96708.53
2023-03-26T15:51:01.527Z,96699.19
2023-03-26T15:53:55.936Z,96694.47
2023-03-26T15:56:30.319Z,96687.50
2023-03-26T15:59:16.318Z,96681.88
2023-03-26T16:02:08.045Z,96678.66
2023-03-26T16:04:50.272Z,96685.16
2023-03-26T16:07:56.056Z,96681.44
2023-03-26T16:10:51.888Z,96682.75
2023-03-26T16:13:36.785Z,96687.81
2023-03-26T16:16:49.923Z,96690.19
2023-03-26T16:19:23.990Z,96697.72
2023-03-26T16:21:56.205Z,96691.06
2023-03-26T16:24:33.113Z,96687.06
2023-03-26T16:27:03.317Z,96679.41
2023-03-26T16:29:30.733Z,96675.13
2023-03-26T16:32:29.950Z,96674.84
2023-03-26T16:35:03.492Z,96665.66
2023-03-26T16:37:36.720Z,96673.16
2023-03-26T16:40:21.555Z,96668.84
2023-03-26T16:42:50.094Z,96667.81
2023-03-26T16:45:43.741Z,96660.78
2023-03-26T16:48:34.717Z,96659.78
2023-03-26T16:51:47.542Z,96663.56
2023-03-26T16:54:46.179Z,96661.31
2023-03-26T16:57:28.143Z,96659.47
2023-03-26T17:00:28.035Z,96649.28
2023-03-26T17:03:25.953Z,96654.75
2023-03-26T17:05:59.730Z,96655.09
2023-03-26T17:09:01.193Z,96655.19
2023-03-26T17:11:46.139Z,96663.34
2023-03-26T17:14:35.335Z,96663.47
2023-03-26T17:17:18.230Z,96664.19
2023-03-26T17:19:55.350Z,96673.13
2023-03-26T17:22:44.234Z,96667.97
2023-03-26T17:25:44.565Z,96658.50
2023-03-26T17:28:42.761Z,96665.78
2023-03-26T17:31:31.592Z,96675.81
2023-03-26T17:34:35.528Z,96669.25
2023-03-26T17:37:19.194Z,96671.50
2023-03-26T17:39:52.182Z,96674.47
2023-03-26T17:42:25.697Z,96679.78
2023-03-26T17:44:55.846Z,96669.84
2023-03-26T17:47:38.530Z,96674.97
2023-03-26T17:50:13.101Z,96680.94
2023-03-26T17:52:52.424Z,96678.34
2023-03-26T17:55:27.872Z,96673.50
2023-03-26T17:57:59.654Z,96669.34
2023-03-26T18:00:42.712Z,96661.63
2023-03-26T18:03:29.558Z,96668.25
2023-03-26T18:06:06.701Z,96663.88
2023-03-26T18:09:24.528Z,96662.63
2023-03-26T18:12:23.329Z,96662.25
2023-03-26T18:15:04.595Z,96667.34
2023-03-26T18:17:42.609Z,96664.53
2023-03-26T18:20:28.674Z,96670.81
2023-03-26T18:22:57.512Z,96673.75
2023-03-26T18:25:34.215Z,96676.56
2023-03-26T18:28:04.842Z,96682.13
2023-03-26T18:30:31.912Z,96681.06
2023-03-26T18:33:12.826Z,96681.28
2023-03-26T18:35:43.710Z,96670.63
2023-03-26T18:38:36.121Z,96671.41
2023-03-26T18:41:10.579Z,96660.41
2023-03-26T18:43:44.154Z,96656.59
2023-03-26T18:46:14.056Z,96656.88
2023-03-26T18:48:42.771Z,96659.09
2023-03-26T18:51:13.067Z,96665.44
2023-03-26T18:53:57.020Z,96660.38
2023-03-26T18:56:39.750Z,96660.69
2023-03-26T18:59:25.002Z,96652.28
2023-03-26T19:01:52.767Z,96645.03
2023-03-26T19:04:20.144Z,96633.03
2023-03-26T19:06:48.045Z,96627.34
2023-03-26T19:09:28.632Z,96628.50
2023-03-26T19:12:06.756Z,96617.72
2023-03-26T19:14:37.261Z,96616.31
2023-03-26T19:17:08.319Z,96609.97
2023-03-26T19:19:37.811Z,96608.31
2023-03-26T19:22:06.504Z,96617.22
2023-03-26T19:24:34.204Z,96610.19
2023-03-26T19:27:03.848Z,96619.25
2023-03-26T19:29:42.174Z,96615.03
2023-03-26T19:32:40.522Z,96607.88
2023-03-26T19:35:25.318Z,96603.72
2023-03-26T19:37:57.481Z,96595.94
2023-03-26T19:40:31.806Z,96598.97
2023-03-26T19:42:59.198Z,96600.91
2023-03-26T19:45:28.065Z,96602.72
2023-03-26T19:48:13.916Z,96600.22
2023-03-26T19:50:43.330Z,96601.69
2023-03-26T19:53:16.643Z,96586.34
2023-03-26T19:56:11.903Z,96588.69
2023-03-26T19:58:43.601Z,96586.69
2023-03-26T20:01:24.277Z,96585.44
2023-03-26T20:03:55.640Z,96581.94
2023-03-26T20:06:31.042Z,96585.66
2023-03-26T20:09:02.233Z,96590.31
2023-03-26T20:11:52.158Z,96594.22
2023-03-26T20:14:45.820Z,96596.34
2023-03-26T20:17:16.013Z,96596.34
2023-03-26T20:19:51.415Z,96593.28
2023-03-26T20:22:22.441Z,96601.06
2023-03-26T20:24:52.764Z,96599.13
2023-03-26T20:27:20.512Z,96599.47
2023-03-26T20:29:48.066Z,96590.72
2023-03-26T20:32:26.469Z,96592.09
2023-03-26T20:34:54.324Z,96587.47
2023-03-26T20:37:21.700Z,96592.81
2023-03-26T20:39:49.653Z,96582.50
2023-03-26T20:42:17.180Z,96578.34
2023-03-26T20:44:44.534Z,96571.28
2023-03-26T20:47:12.892Z,96572.00
2023-03-26T20:49:40.397Z,96574.50
2023-03-26T20:52:07.889Z,96565.59
2023-03-26T20:54:35.831Z,96565.69
2023-03-26T20:57:04.702Z,96555.25
2023-03-26T20:59:32.041Z,96560.66
2023-03-26T21:01:59.546Z,96565.31
2023-03-26T21:04:27.368Z,96556.72
2023-03-26T21:07:00.430Z,96575.72
2023-03-26T21:09:34.925Z,96579.75
2023-03-26T21:12:15.428Z,96581.97
2023-03-26T21:14:44.405Z,96573.16
2023-03-26T21:17:17.287Z,96571.81
2023-03-26T21:19:45.582Z,96568.47
2023-03-26T21:22:21.172Z,96567.28
2023-03-26T21:24:51.861Z,96569.50
2023-03-26T21:27:36.105Z,96564.97
2023-03-26T21:30:14.367Z,96566.88
2023-03-26T21:32:42.461Z,96560.16
2023-03-26T21:35:10.898Z,96562.66
2023-03-26T21:37:38.345Z,96553.50
2023-03-26T21:40:16.688Z,96551.03
2023-03-26T21:42:52.425Z,96549.53
2023-03-26T21:45:20.871Z,96551.69
2023-03-26T21:47:49.839Z,96547.47
2023-03-26T21:50:20.454Z,96549.88
2023-03-26T21:52:48.946Z,96546.09
2023-03-26T21:55:19.595Z,96544.75
2023-03-26T21:57:49.770Z,96536.91
2023-03-26T22:00:19.320Z,96534.47
2023-03-26T22:03:17.112Z,96517.34
2023-03-26T22:05:50.318Z,96511.22
2023-03-26T22:08:33.136Z,96502.09
2023-03-26T22:11:00.866Z,96508.13
2023-03-26T22:13:28.071Z,96508.91
2023-03-26T22:15:55.029Z,96510.31
2023-03-26T22:18:22.259Z,96503.13
2023-03-26T22:20:50.443Z,96501.69
2023-03-26T22:23:18.167Z,96501.78
2023-03-26T22:25:48.464Z,96496.41
2023-03-26T22:28:19.307Z,96493.41
2023-03-26T22:30:46.697Z,96506.25
2023-03-26T22:33:14.458Z,96490.56
2023-03-26T22:35:43.404Z,96498.59
2023-03-26T22:38:11.863Z,96501.53
2023-03-26T22:40:39.407Z,96496.78
2023-03-26T22:43:07.209Z,96510.53
2023-03-26T22:45:34.284Z,96521.56
2023-03-26T22:48:04.805Z,96525.66
2023-03-26T22:50:32.855Z,96523.06
2023-03-26T22:53:00.996Z,96517.03
2023-03-26T22:55:29.977Z,96509.53
2023-03-26T22:57:58.665Z,96515.78
2023-03-26T23:00:26.679Z,96505.03
2023-03-26T23:02:55.771Z,96515.84
2023-03-26T23:05:24.696Z,96520.47
2023-03-26T23:07:53.598Z,96524.06
2023-03-26T23:10:21.675Z,96540.72
2023-03-26T23:12:50.228Z,96550.75
2023-03-26T23:15:17.654Z,96553.50
2023-03-26T23:17:44.587Z,96551.81
2023-03-26T23:20:22.972Z,96556.22
2023-03-26T23:22:50.770Z,96561.63
2023-03-26T23:25:18.420Z,96566.88
2023-03-26T23:27:46.124Z,96565.19
2023-03-26T23:30:15.204Z,96568.22
2023-03-26T23:32:42.147Z,96561.91
2023-03-26T23:35:10.115Z,96570.59
2023-03-26T23:37:37.278Z,96574.56
2023-03-26T23:40:10.486Z,96569.44
2023-03-26T23:42:37.967Z,96567.81
2023-03-26T23:45:06.435Z,96563.13
2023-03-26T23:47:34.785Z,96569.44
2023-03-26T23:50:02.862Z,96559.50
2023-03-26T23:52:37.622Z,96565.38
2023-03-26T23:55:05.040Z,96551.34
2023-03-26T23:57:32.150Z,96557.44
2023-03-26T23:59:59.003Z,96551.69
